TAF and METAR

Could not understand the following METAR

EHSA 201425Z AUTO 06011KT 9999 ///////// 16/09 Q1026 W16/H7
No TAF available for Euro Platform
Euro Platform in Netherlands at 50m

Latest 5 airports